Time;durP1;ratioP1;P1;durP2;ratioP2;P2;SDS_P1;SDS_P2;PMS_P1;PMS_P2;Temp;Humidity;BMP_temperature;BMP_pressure;BME280_temperature;BME280_humidity;BME280_pressure;Samples;Min_cycle;Max_cycle;Signal;HPM_P1;HPM_P2
2022/11/14 00:01:46;;;;;;;1.90;1.53;;;12.20;62.50;;;;;;5087232;27;45203;-70
2022/11/14 00:04:13;;;;;;;1.65;1.55;;;12.20;62.50;;;;;;5086338;27;45616;-69
2022/11/14 00:06:41;;;;;;;1.60;1.50;;;12.20;62.50;;;;;;5086348;27;45276;-69
2022/11/14 00:09:08;;;;;;;1.30;1.20;;;12.20;62.50;;;;;;5086996;27;45316;-69
2022/11/14 00:11:36;;;;;;;1.40;1.30;;;12.20;62.50;;;;;;5087446;27;45466;-70
2022/11/14 00:14:03;;;;;;;2.47;1.75;;;12.20;62.50;;;;;;5090432;27;46432;-69
2022/11/14 00:16:30;;;;;;;1.40;1.30;;;12.20;62.50;;;;;;5090311;27;45339;-69
2022/11/14 00:18:57;;;;;;;1.60;1.30;;;12.20;62.50;;;;;;5090272;27;45347;-70
2022/11/14 00:21:24;;;;;;;3.40;1.55;;;12.20;62.50;;;;;;5090589;27;45539;-70
2022/11/14 00:23:52;;;;;;;1.60;1.40;;;12.20;62.50;;;;;;5089950;27;45775;-69
2022/11/14 00:26:19;;;;;;;1.80;1.70;;;12.20;62.60;;;;;;5090184;27;45230;-69
2022/11/14 00:28:46;;;;;;;1.40;1.30;;;12.20;62.50;;;;;;5090288;27;45240;-69
2022/11/14 00:31:13;;;;;;;1.60;1.50;;;12.20;62.50;;;;;;5090451;27;45397;-69
2022/11/14 00:33:40;;;;;;;1.77;1.33;;;12.20;62.50;;;;;;5089718;27;46541;-70
2022/11/14 00:36:07;;;;;;;1.47;1.37;;;12.20;62.60;;;;;;5089798;27;45434;-70
2022/11/14 00:38:34;;;;;;;2.15;1.83;;;12.20;62.70;;;;;;5090171;27;45222;-69
2022/11/14 00:41:02;;;;;;;1.65;1.55;;;12.20;63.40;;;;;;5090084;27;45528;-69
2022/11/14 00:43:29;;;;;;;1.33;1.20;;;12.20;62.70;;;;;;5089761;27;45290;-69
2022/11/14 00:45:56;;;;;;;1.35;1.30;;;12.20;62.70;;;;;;5089826;27;45200;-69
2022/11/14 00:48:23;;;;;;;2.33;1.40;;;12.10;62.70;;;;;;5089248;27;45256;-69
2022/11/14 00:50:50;;;;;;;1.90;1.55;;;12.10;62.80;;;;;;5089313;27;45490;-69
2022/11/14 00:53:17;;;;;;;1.97;1.57;;;12.10;62.80;;;;;;5089367;27;46838;-70
2022/11/14 00:55:43;;;;;;;2.42;1.70;;;12.10;62.80;;;;;;5089554;27;45374;-69
2022/11/14 00:58:12;;;;;;;1.70;1.60;;;12.10;63.50;;;;;;5089675;27;45287;-70
2022/11/14 01:00:39;;;;;;;1.83;1.60;;;12.10;62.80;;;;;;5089757;27;45187;-69
2022/11/14 01:03:06;;;;;;;1.60;1.33;;;12.10;62.80;;;;;;5089458;27;46386;-69
2022/11/14 01:05:32;;;;;;;1.60;1.50;;;12.10;62.90;;;;;;5089467;27;45422;-69
2022/11/14 01:07:59;;;;;;;2.42;1.80;;;12.10;62.90;;;;;;5089543;27;45301;-69
2022/11/14 01:10:26;;;;;;;1.58;1.42;;;12.10;62.80;;;;;;5089985;27;45263;-69
2022/11/14 01:12:53;;;;;;;1.70;1.60;;;12.10;62.80;;;;;;5089077;27;46380;-69
2022/11/14 01:15:21;;;;;;;2.38;1.60;;;12.10;62.90;;;;;;5088964;27;45239;-69
2022/11/14 01:17:48;;;;;;;1.50;1.40;;;12.10;62.90;;;;;;5089661;27;45307;-69
2022/11/14 01:20:16;;;;;;;1.70;1.60;;;12.10;63.00;;;;;;5089576;27;45394;-69
2022/11/14 01:22:43;;;;;;;2.17;1.70;;;12.10;63.00;;;;;;5088584;27;47474;-70
2022/11/14 01:25:10;;;;;;;2.05;1.80;;;12.10;63.00;;;;;;5088099;27;45445;-70
2022/11/14 01:27:37;;;;;;;1.53;1.37;;;12.10;63.00;;;;;;5089447;27;45424;-70
2022/11/14 01:30:04;;;;;;;1.77;1.63;;;12.10;63.10;;;;;;5089474;27;45297;-70
2022/11/14 01:32:32;;;;;;;2.08;1.83;;;12.10;63.00;;;;;;5088839;27;46768;-70
2022/11/14 01:34:59;;;;;;;1.80;1.70;;;12.10;63.00;;;;;;5088545;27;45267;-69
2022/11/14 01:37:26;;;;;;;1.43;1.33;;;12.10;63.00;;;;;;5089174;27;45318;-70
2022/11/14 01:39:53;;;;;;;1.70;1.30;;;12.10;63.00;;;;;;5089394;27;45240;-69
2022/11/14 01:42:20;;;;;;;2.05;1.35;;;12.10;63.00;;;;;;5088848;27;45739;-69
2022/11/14 01:44:48;;;;;;;2.97;1.73;;;12.10;63.00;;;;;;5089013;27;45195;-69
2022/11/14 01:47:18;;;;;;;1.30;1.25;;;12.10;63.00;;;;;;5089175;27;45199;-70
2022/11/14 01:49:47;;;;;;;1.60;1.50;;;12.10;63.00;;;;;;5088919;27;45468;-70
2022/11/14 01:52:15;;;;;;;1.50;1.40;;;12.10;63.00;;;;;;5088727;27;47038;-70
2022/11/14 01:54:45;;;;;;;1.50;1.40;;;12.10;63.00;;;;;;5088379;27;45402;-70
2022/11/14 01:57:12;;;;;;;1.37;1.27;;;12.10;63.00;;;;;;5088941;27;45269;-70
2022/11/14 01:59:41;;;;;;;1.70;1.60;;;12.10;63.00;;;;;;5088997;27;45295;-70
2022/11/14 02:02:10;;;;;;;1.83;1.73;;;12.00;62.90;;;;;;5088485;27;46639;-70
2022/11/14 02:04:40;;;;;;;1.60;1.50;;;12.00;62.90;;;;;;5088572;27;45268;-69
2022/11/14 02:07:08;;;;;;;2.00;1.50;;;12.00;62.90;;;;;;5088415;27;45349;-69
2022/11/14 02:09:37;;;;;;;1.85;1.73;;;12.00;63.00;;;;;;5088730;27;45316;-69
2022/11/14 02:12:06;;;;;;;1.93;1.50;;;12.00;63.10;;;;;;5088291;27;46381;-69
2022/11/14 02:14:33;;;;;;;1.40;1.30;;;12.00;63.10;;;;;;5088086;27;45321;-69
2022/11/14 02:17:00;;;;;;;1.55;1.45;;;12.00;63.10;;;;;;5088520;27;45248;-69
2022/11/14 02:19:29;;;;;;;1.48;1.38;;;12.00;63.10;;;;;;5088374;27;45431;-69
2022/11/14 02:21:58;;;;;;;1.60;1.50;;;12.00;63.10;;;;;;5087482;27;45377;-69
2022/11/14 02:24:24;;;;;;;1.67;1.10;;;12.00;63.20;;;;;;5087398;27;45294;-69
2022/11/14 02:26:51;;;;;;;1.40;1.30;;;12.00;64.00;;;;;;5088049;27;45210;-69
2022/11/14 02:29:18;;;;;;;1.75;1.65;;;12.00;63.10;;;;;;5087381;27;45501;-69
2022/11/14 02:31:45;;;;;;;1.73;1.63;;;12.00;63.10;;;;;;5087858;27;46932;-69
2022/11/14 02:34:15;;;;;;;1.40;1.30;;;12.00;63.10;;;;;;5087186;27;45378;-69
2022/11/14 02:36:42;;;;;;;1.50;1.40;;;12.00;63.10;;;;;;5087882;27;45203;-69
2022/11/14 02:39:10;;;;;;;1.17;1.13;;;12.00;63.10;;;;;;5088323;28;45469;-70
2022/11/14 02:41:37;;;;;;;1.60;1.50;;;12.00;63.10;;;;;;5087735;27;47035;-69
2022/11/14 02:44:04;;;;;;;1.50;1.40;;;12.00;63.10;;;;;;5088144;27;45334;-69
2022/11/14 02:46:31;;;;;;;1.50;1.40;;;12.00;63.10;;;;;;5087853;27;45203;-71
2022/11/14 02:48:58;;;;;;;1.40;1.30;;;12.00;63.10;;;;;;5088048;27;45249;-69
2022/11/14 02:51:25;;;;;;;1.30;1.20;;;12.00;63.10;;;;;;5087420;27;46471;-69
2022/11/14 02:53:52;;;;;;;1.70;1.60;;;12.00;63.80;;;;;;5087812;27;45333;-69
2022/11/14 02:56:20;;;;;;;1.55;1.40;;;11.90;63.10;;;;;;5088055;27;45289;-69
2022/11/14 02:58:47;;;;;;;1.53;1.30;;;11.90;63.10;;;;;;5088127;27;45192;-70
2022/11/14 03:01:14;;;;;;;1.53;1.20;;;11.90;63.10;;;;;;5087428;27;45248;-70
2022/11/14 03:03:41;;;;;;;1.50;1.40;;;11.90;63.00;;;;;;5087756;27;45491;-69
2022/11/14 03:06:08;;;;;;;1.60;1.30;;;11.90;63.10;;;;;;5088004;27;45302;-70
2022/11/14 03:08:35;;;;;;;1.47;1.37;;;11.90;63.10;;;;;;5087464;27;45490;-69
2022/11/14 03:11:04;;;;;;;1.52;1.42;;;11.90;63.10;;;;;;5087316;27;45333;-69
2022/11/14 03:13:32;;;;;;;1.58;1.48;;;11.90;63.00;;;;;;5087350;27;45328;-69
2022/11/14 03:16:04;;;;;;;1.60;1.20;;;11.90;63.10;;;;;;5087650;27;45513;-70
2022/11/14 03:18:31;;;;;;;1.60;1.50;;;11.90;63.00;;;;;;5087590;27;45233;-68
2022/11/14 03:21:04;;;;;;;1.43;1.20;;;11.90;63.10;;;;;;5087396;27;45451;-68
2022/11/14 03:23:31;;;;;;;1.43;1.23;;;11.90;63.10;;;;;;5086840;27;45218;-68
2022/11/14 03:26:00;;;;;;;1.33;1.23;;;11.90;63.00;;;;;;5086955;27;45326;-68
2022/11/14 03:28:27;;;;;;;1.63;1.30;;;11.90;63.10;;;;;;5087110;27;45133;-68
2022/11/14 03:30:56;;;;;;;1.43;1.33;;;11.90;63.80;;;;;;5086694;27;45680;-68
2022/11/14 03:33:23;;;;;;;1.63;1.13;;;11.90;63.00;;;;;;5086879;27;45363;-68
2022/11/14 03:35:50;;;;;;;1.30;1.20;;;11.90;63.10;;;;;;5087120;27;45309;-68
2022/11/14 03:38:17;;;;;;;1.20;1.10;;;11.90;63.10;;;;;;5087140;27;45403;-68
2022/11/14 03:40:44;;;;;;;1.45;1.30;;;11.90;63.10;;;;;;5086621;27;46393;-68
2022/11/14 03:43:11;;;;;;;1.20;1.10;;;11.90;63.10;;;;;;5086681;27;45151;-69
2022/11/14 03:45:38;;;;;;;1.30;1.20;;;11.80;63.10;;;;;;5086738;27;45318;-69
2022/11/14 03:48:06;;;;;;;1.13;1.10;;;11.80;63.10;;;;;;5086843;27;45293;-69
2022/11/14 03:50:33;;;;;;;1.23;1.17;;;11.80;63.00;;;;;;5086435;27;45451;-68
2022/11/14 03:53:00;;;;;;;1.10;1.10;;;11.80;63.10;;;;;;5086603;27;45251;-68
2022/11/14 03:55:27;;;;;;;1.03;1.00;;;11.80;63.10;;;;;;5086732;27;45314;-68
2022/11/14 03:57:54;;;;;;;1.40;1.23;;;11.80;63.10;;;;;;5086239;27;45227;-68
2022/11/14 04:00:21;;;;;;;1.25;1.25;;;11.80;63.10;;;;;;5086467;27;46378;-68
2022/11/14 04:02:48;;;;;;;1.17;1.07;;;11.80;63.00;;;;;;5086539;28;45283;-68
2022/11/14 04:05:16;;;;;;;1.20;1.10;;;11.80;63.00;;;;;;5086534;27;45251;-68
2022/11/14 04:07:43;;;;;;;1.30;1.20;;;11.80;63.00;;;;;;5086620;27;45271;-68
2022/11/14 04:10:10;;;;;;;0.90;0.90;;;11.80;63.00;;;;;;5086695;27;46650;-69
2022/11/14 04:12:37;;;;;;;1.10;1.10;;;11.80;63.00;;;;;;5086628;27;45274;-68
2022/11/14 04:15:04;;;;;;;1.00;1.00;;;11.80;63.10;;;;;;5086771;27;45217;-68
2022/11/14 04:17:31;;;;;;;1.27;1.17;;;11.80;63.10;;;;;;5086670;27;45399;-68
2022/11/14 04:19:58;;;;;;;1.30;1.20;;;11.70;63.10;;;;;;5086162;27;45299;-68
2022/11/14 04:22:27;;;;;;;1.40;1.30;;;11.80;63.10;;;;;;5086309;27;45469;-68
2022/11/14 04:24:53;;;;;;;1.27;1.03;;;11.80;63.10;;;;;;5086672;27;45192;-68
2022/11/14 04:27:20;;;;;;;1.23;1.13;;;11.80;63.00;;;;;;5086792;27;45200;-68
2022/11/14 04:29:47;;;;;;;0.90;0.90;;;11.80;63.00;;;;;;5086329;27;46674;-68
2022/11/14 04:32:14;;;;;;;1.20;1.10;;;11.80;63.00;;;;;;5086274;27;45299;-68
2022/11/14 04:34:41;;;;;;;1.27;1.20;;;11.80;63.00;;;;;;5086123;27;45441;-69
2022/11/14 04:37:08;;;;;;;0.87;0.87;;;11.80;63.00;;;;;;5086476;27;45250;-71
2022/11/14 04:39:36;;;;;;;1.30;1.20;;;11.70;63.00;;;;;;5085361;27;46601;-71
2022/11/14 04:42:03;;;;;;;1.20;1.10;;;11.70;63.00;;;;;;5085842;27;45367;-68
2022/11/14 04:44:30;;;;;;;1.10;1.07;;;11.70;63.10;;;;;;5086277;27;45299;-68
2022/11/14 04:46:57;;;;;;;1.30;1.10;;;11.70;63.00;;;;;;5086324;27;45180;-68
2022/11/14 04:49:24;;;;;;;1.10;1.05;;;11.70;63.10;;;;;;5085860;28;47589;-68
2022/11/14 04:51:51;;;;;;;1.30;1.20;;;11.70;63.10;;;;;;5085676;27;45713;-68
2022/11/14 04:54:18;;;;;;;0.95;0.93;;;11.70;63.80;;;;;;5085953;27;45312;-69
2022/11/14 04:56:46;;;;;;;1.13;1.00;;;11.70;63.10;;;;;;5086100;27;45359;-69
2022/11/14 04:59:13;;;;;;;1.40;1.30;;;11.70;63.10;;;;;;5088494;27;46816;-69
2022/11/14 05:01:40;;;;;;;1.27;1.20;;;11.70;63.10;;;;;;5089623;28;45319;-72
2022/11/14 05:04:07;;;;;;;1.40;1.10;;;11.70;63.10;;;;;;5089612;27;45284;-71
2022/11/14 05:06:34;;;;;;;1.08;1.05;;;11.70;63.10;;;;;;5089759;27;45358;-71
2022/11/14 05:09:01;;;;;;;1.52;1.10;;;11.70;63.10;;;;;;5089306;27;47359;-71
2022/11/14 05:11:28;;;;;;;1.00;1.00;;;11.70;63.10;;;;;;5089301;27;45271;-71
2022/11/14 05:13:56;;;;;;;1.00;1.00;;;11.70;63.10;;;;;;5089164;27;45151;-71
2022/11/14 05:16:24;;;;;;;2.20;1.10;;;11.70;63.10;;;;;;5089425;27;45293;-71
2022/11/14 05:18:53;;;;;;;1.17;1.07;;;11.70;63.00;;;;;;5089024;27;45696;-71
2022/11/14 05:21:20;;;;;;;1.30;1.20;;;11.70;63.10;;;;;;5088908;27;45263;-71
2022/11/14 05:23:47;;;;;;;1.27;1.10;;;11.70;63.00;;;;;;5088717;27;45214;-71
2022/11/14 05:26:17;;;;;;;0.93;0.93;;;11.70;63.00;;;;;;5089202;27;45387;-71
2022/11/14 05:28:44;;;;;;;1.10;1.10;;;11.70;63.00;;;;;;5088765;27;45541;-68
2022/11/14 05:31:13;;;;;;;1.17;1.08;;;11.70;63.00;;;;;;5088794;27;45660;-69
2022/11/14 05:33:40;;;;;;;1.08;1.00;;;11.70;63.00;;;;;;5088706;27;45308;-69
2022/11/14 05:36:09;;;;;;;1.37;1.23;;;11.60;63.00;;;;;;5088987;27;45354;-68
2022/11/14 05:38:36;;;;;;;1.13;1.10;;;11.70;63.10;;;;;;5088696;27;46617;-68
2022/11/14 05:41:05;;;;;;;0.90;0.90;;;11.60;63.00;;;;;;5088722;27;45331;-69
2022/11/14 05:43:32;;;;;;;1.30;1.20;;;11.60;63.10;;;;;;5088839;27;45396;-68
2022/11/14 05:46:00;;;;;;;2.05;1.08;;;11.60;63.10;;;;;;5089064;27;45200;-68
2022/11/14 05:48:28;;;;;;;1.20;1.10;;;11.60;63.00;;;;;;5088358;27;45326;-69
2022/11/14 05:50:55;;;;;;;1.30;1.20;;;11.60;63.00;;;;;;5088249;27;45497;-72
2022/11/14 05:53:22;;;;;;;1.20;1.10;;;11.60;63.00;;;;;;5088739;27;45326;-72
2022/11/14 05:55:49;;;;;;;1.30;1.20;;;11.60;63.00;;;;;;5088804;27;45310;-71
2022/11/14 05:58:15;;;;;;;1.23;1.00;;;11.60;63.00;;;;;;5088454;27;45328;-71
2022/11/14 06:00:42;;;;;;;1.00;1.00;;;11.60;63.00;;;;;;5088337;27;45291;-71
2022/11/14 06:03:09;;;;;;;1.37;1.20;;;11.60;63.00;;;;;;5088890;27;44829;-71
2022/11/14 06:05:37;;;;;;;1.20;1.10;;;11.60;63.70;;;;;;5088735;27;45402;-71
2022/11/14 06:08:05;;;;;;;1.53;1.20;;;11.60;63.00;;;;;;5088232;27;45206;-69
2022/11/14 06:10:32;;;;;;;1.57;1.47;;;11.60;63.00;;;;;;5088002;27;45259;-68
2022/11/14 06:12:59;;;;;;;1.30;1.20;;;11.60;63.00;;;;;;5088381;27;45439;-68
2022/11/14 06:15:26;;;;;;;1.30;1.20;;;11.60;63.80;;;;;;5088794;27;45468;-68
2022/11/14 06:17:53;;;;;;;1.17;1.07;;;11.60;63.80;;;;;;5088175;27;46534;-69
2022/11/14 06:20:20;;;;;;;1.30;1.20;;;11.60;63.10;;;;;;5088043;27;45215;-68
2022/11/14 06:22:48;;;;;;;1.50;1.40;;;11.60;63.80;;;;;;5088249;27;45246;-68
2022/11/14 06:25:15;;;;;;;1.30;1.20;;;11.60;63.10;;;;;;5088440;27;45284;-69
2022/11/14 06:27:42;;;;;;;1.20;1.10;;;11.60;63.80;;;;;;5087885;27;46850;-69
2022/11/14 06:30:10;;;;;;;1.30;1.20;;;11.60;63.00;;;;;;5088363;27;45320;-71
2022/11/14 06:32:37;;;;;;;1.30;1.20;;;11.60;63.00;;;;;;5088236;27;45263;-71
2022/11/14 06:35:07;;;;;;;1.30;1.20;;;11.60;63.00;;;;;;5088278;27;45482;-71
2022/11/14 06:37:35;;;;;;;1.23;1.13;;;11.60;63.00;;;;;;5087746;27;47504;-68
2022/11/14 06:40:04;;;;;;;1.53;1.30;;;11.60;63.50;;;;;;5088223;27;45242;-69
2022/11/14 06:42:31;;;;;;;1.50;1.40;;;11.60;63.10;;;;;;5087823;27;45354;-68
2022/11/14 06:44:58;;;;;;;1.30;1.20;;;11.60;63.10;;;;;;5087965;27;45335;-68
2022/11/14 06:47:25;;;;;;;1.47;1.33;;;11.60;63.10;;;;;;5087929;27;45316;-70
2022/11/14 06:49:52;;;;;;;1.10;1.10;;;11.60;63.10;;;;;;5087540;27;45201;-68
2022/11/14 06:52:19;;;;;;;1.43;1.33;;;11.60;63.80;;;;;;5088041;27;45308;-68
2022/11/14 06:54:46;;;;;;;1.30;1.20;;;11.60;63.10;;;;;;5087338;27;45274;-71
2022/11/14 06:57:14;;;;;;;1.27;1.17;;;11.60;63.10;;;;;;5087549;27;45344;-69
2022/11/14 06:59:41;;;;;;;1.17;1.07;;;11.60;63.10;;;;;;5087634;27;45259;-69
2022/11/14 07:02:11;;;;;;;1.30;1.20;;;11.60;63.10;;;;;;5087854;27;45287;-69
2022/11/14 07:04:38;;;;;;;1.47;1.10;;;11.60;63.10;;;;;;5088157;27;45432;-69
2022/11/14 07:07:05;;;;;;;1.57;1.47;;;11.60;63.20;;;;;;5087758;27;45445;-69
2022/11/14 07:09:32;;;;;;;1.60;1.50;;;11.60;63.20;;;;;;5087484;27;45338;-69
2022/11/14 07:11:59;;;;;;;1.07;1.03;;;11.60;63.20;;;;;;5087741;27;45487;-71
2022/11/14 07:14:27;;;;;;;1.43;1.33;;;11.60;63.20;;;;;;5087799;27;45516;-69
2022/11/14 07:16:54;;;;;;;1.30;1.17;;;11.60;63.20;;;;;;5087306;27;46704;-69
2022/11/14 07:19:21;;;;;;;1.87;1.40;;;11.60;63.20;;;;;;5087491;27;45342;-69
2022/11/14 07:21:48;;;;;;;1.60;1.43;;;11.60;63.10;;;;;;5086956;27;45417;-69
2022/11/14 07:24:15;;;;;;;1.60;1.30;;;11.60;63.10;;;;;;5087701;27;45418;-69
2022/11/14 07:26:42;;;;;;;2.53;1.43;;;11.60;63.10;;;;;;5087167;27;46425;-70
2022/11/14 07:29:09;;;;;;;1.10;1.00;;;11.60;63.10;;;;;;5087430;27;45205;-69
2022/11/14 07:31:38;;;;;;;1.00;1.00;;;11.60;63.20;;;;;;5087441;27;45195;-69
2022/11/14 07:34:05;;;;;;;1.60;1.20;;;11.60;63.20;;;;;;5087668;27;45453;-69
2022/11/14 07:36:32;;;;;;;1.30;1.20;;;11.60;63.90;;;;;;5086924;27;45633;-70
2022/11/14 07:38:59;;;;;;;1.50;1.40;;;11.60;63.20;;;;;;5086254;27;45200;-70
2022/11/14 07:41:26;;;;;;;2.77;1.60;;;11.60;63.20;;;;;;5079837;27;45280;-73
2022/11/14 07:43:53;;;;;;;1.37;1.27;;;11.60;66.00;;;;;;5068935;28;45382;-74
2022/11/14 07:46:20;;;;;;;2.25;1.85;;;11.70;68.70;;;;;;5083024;28;46351;-72
2022/11/14 07:48:48;;;;;;;3.33;2.20;;;11.80;69.70;;;;;;5084624;28;45340;-69
2022/11/14 07:51:16;;;;;;;4.63;2.67;;;11.90;68.40;;;;;;5086722;27;45288;-69
2022/11/14 07:53:43;;;;;;;6.20;2.90;;;11.90;68.20;;;;;;5085242;27;45384;-74
2022/11/14 07:56:10;;;;;;;4.85;3.00;;;12.00;69.20;;;;;;5086292;28;45413;-74
2022/11/14 07:58:37;;;;;;;6.27;3.00;;;12.10;69.30;;;;;;5086762;27;45282;-70
2022/11/14 08:01:04;;;;;;;8.23;3.50;;;12.20;69.30;;;;;;5086303;27;45447;-70
2022/11/14 08:03:31;;;;;;;6.28;3.38;;;12.20;67.60;;;;;;5086397;27;45541;-71
2022/11/14 08:06:03;;;;;;;4.95;2.67;;;12.30;66.90;;;;;;5086459;27;46743;-68
2022/11/14 08:08:30;;;;;;;8.38;3.03;;;12.30;67.80;;;;;;5086210;27;45212;-69
2022/11/14 08:10:57;;;;;;;6.57;3.17;;;12.40;67.20;;;;;;5086386;27;45382;-68
2022/11/14 08:13:24;;;;;;;9.65;4.15;;;12.50;66.70;;;;;;5087185;27;45337;-72
2022/11/14 08:15:51;;;;;;;6.40;3.85;;;12.50;66.80;;;;;;5085588;27;46390;-70
2022/11/14 08:18:18;;;;;;;5.20;3.22;;;12.50;66.70;;;;;;5086464;27;45386;-68
2022/11/14 08:20:45;;;;;;;7.18;4.13;;;12.60;66.90;;;;;;5077851;27;45458;-69
2022/11/14 08:23:13;;;;;;;10.93;4.33;;;12.60;66.20;;;;;;5078374;28;45396;-70
2022/11/14 08:25:40;;;;;;;9.73;5.38;;;12.60;65.80;;;;;;5086174;27;45662;-69
2022/11/14 08:28:07;;;;;;;42.05;34.08;;;12.60;66.00;;;;;;5085770;27;45305;-72
2022/11/14 08:30:34;;;;;;;75.97;61.13;;;12.70;65.70;;;;;;5085961;27;45308;-73
2022/11/14 08:33:02;;;;;;;54.55;47.33;;;12.70;66.00;;;;;;5088171;27;45192;-73
2022/11/14 08:35:29;;;;;;;48.28;37.22;;;12.70;66.60;;;;;;5089763;27;46387;-72
2022/11/14 08:37:55;;;;;;;39.17;29.65;;;12.80;65.50;;;;;;5089801;27;45336;-71
2022/11/14 08:40:24;;;;;;;31.63;26.13;;;12.80;65.30;;;;;;5090020;27;45314;-73
2022/11/14 08:42:50;;;;;;;27.77;20.75;;;12.90;65.30;;;;;;5086856;28;45512;-70
2022/11/14 08:45:17;;;;;;;26.75;19.17;;;12.90;65.00;;;;;;5088939;27;46321;-72
2022/11/14 08:47:51;;;;;;;17.58;13.80;;;13.00;65.00;;;;;;5089406;27;45203;-71
2022/11/14 08:50:18;;;;;;;19.90;12.75;;;13.00;64.50;;;;;;5089595;27;45184;-71
2022/11/14 08:52:49;;;;;;;17.48;10.90;;;13.00;64.30;;;;;;5089690;27;45425;-70
2022/11/14 08:55:16;;;;;;;20.75;10.15;;;13.10;64.50;;;;;;5088750;28;45533;-69
2022/11/14 08:57:44;;;;;;;14.65;8.95;;;13.10;64.40;;;;;;5089576;27;45212;-71
2022/11/14 09:00:12;;;;;;;71.47;25.35;;;13.10;64.20;;;;;;5089467;27;45299;-70
2022/11/14 09:02:40;;;;;;;52.88;19.45;;;13.10;64.40;;;;;;5088717;27;45374;-69
2022/11/14 09:05:07;;;;;;;34.25;14.82;;;13.20;64.50;;;;;;5084987;27;45563;-70
2022/11/14 09:07:34;;;;;;;33.72;14.30;;;13.20;64.10;;;;;;5086588;28;45280;-72
2022/11/14 09:10:01;;;;;;;31.95;12.52;;;13.20;63.90;;;;;;5089000;27;45406;-74
2022/11/14 09:12:28;;;;;;;26.42;11.48;;;13.20;64.00;;;;;;5089258;27;45387;-70
2022/11/14 09:14:56;;;;;;;16.80;8.60;;;13.20;63.80;;;;;;5088528;27;46682;-68
2022/11/14 09:17:23;;;;;;;23.77;8.85;;;13.30;64.10;;;;;;5088091;27;45201;-69
2022/11/14 09:19:50;;;;;;;17.75;7.88;;;13.30;63.90;;;;;;5089459;27;45211;-71
2022/11/14 09:22:17;;;;;;;14.82;6.80;;;13.30;63.70;;;;;;5089237;27;45398;-73
2022/11/14 09:24:46;;;;;;;15.38;7.28;;;13.40;63.40;;;;;;5089043;27;46370;-70
2022/11/14 09:27:13;;;;;;;11.75;6.40;;;13.40;63.40;;;;;;5088337;27;45237;-71
2022/11/14 09:29:40;;;;;;;14.15;7.03;;;13.50;63.80;;;;;;5088563;27;45265;-71
2022/11/14 09:32:08;;;;;;;11.60;6.05;;;13.50;63.50;;;;;;5088784;27;45314;-70
2022/11/14 09:34:36;;;;;;;11.70;5.75;;;13.50;64.30;;;;;;5088099;27;46679;-71
2022/11/14 09:37:04;;;;;;;9.45;5.45;;;13.60;63.50;;;;;;5087964;27;45214;-74
2022/11/14 09:39:31;;;;;;;10.25;5.43;;;13.60;63.50;;;;;;5087977;27;45205;-72
2022/11/14 09:42:06;;;;;;;8.68;5.18;;;13.70;63.40;;;;;;5088910;27;45449;-73
2022/11/14 09:44:50;;;;;;;8.18;5.57;;;13.60;62.80;;;;;;5086104;27;46669;-73
2022/11/14 09:47:20;;;;;;;7.35;4.75;;;13.70;63.00;;;;;;5088798;27;45310;-70
2022/11/14 09:49:47;;;;;;;7.55;4.82;;;13.70;63.20;;;;;;5088624;27;45291;-71
2022/11/14 09:52:20;;;;;;;14.32;5.38;;;13.70;63.00;;;;;;5083265;27;45400;-72
2022/11/14 09:54:50;;;;;;;5.90;4.50;;;13.70;62.70;;;;;;5084061;27;45482;-74
2022/11/14 09:57:18;;;;;;;9.98;5.32;;;13.70;62.70;;;;;;5088761;27;45425;-74
2022/11/14 09:59:45;;;;;;;8.18;4.90;;;13.70;62.90;;;;;;5087456;27;45597;-72
2022/11/14 10:02:20;;;;;;;6.45;4.25;;;13.70;62.70;;;;;;5088945;27;45395;-75
2022/11/14 10:05:04;;;;;;;6.65;4.55;;;13.70;63.10;;;;;;5088584;27;46607;-76
2022/11/14 10:07:36;;;;;;;9.25;4.97;;;13.70;62.80;;;;;;5088541;27;45240;-73
2022/11/14 10:10:06;;;;;;;8.52;4.85;;;13.70;62.50;;;;;;5088935;27;45301;-73
2022/11/14 10:12:36;;;;;;;9.10;5.40;;;13.80;62.70;;;;;;5087059;27;45497;-71
2022/11/14 10:15:12;;;;;;;10.07;4.80;;;13.80;62.80;;;;;;5084625;28;47195;-72
2022/11/14 10:17:56;;;;;;;8.00;4.65;;;13.80;62.40;;;;;;5084285;28;45293;-72
2022/11/14 10:20:26;;;;;;;9.55;4.63;;;13.90;62.60;;;;;;5088047;27;45267;-71
2022/11/14 10:23:03;;;;;;;9.75;5.32;;;13.90;62.70;;;;;;5088422;27;45410;-71
2022/11/14 10:25:32;;;;;;;9.23;5.10;;;13.90;62.80;;;;;;5088171;27;46555;-71
2022/11/14 10:28:08;;;;;;;8.45;5.35;;;13.90;62.50;;;;;;5087644;27;45360;-71
2022/11/14 10:30:39;;;;;;;7.45;5.05;;;14.00;62.40;;;;;;5086820;27;45402;-73
2022/11/14 10:33:25;;;;;;;9.30;5.85;;;14.00;62.70;;;;;;5083147;27;45523;-74
2022/11/14 10:35:55;;;;;;;13.73;6.25;;;14.00;63.20;;;;;;5085249;28;46422;-74
2022/11/14 10:38:25;;;;;;;17.38;7.85;;;14.10;63.00;;;;;;5086988;27;45417;-70
2022/11/14 10:40:52;;;;;;;22.92;8.73;;;14.10;63.10;;;;;;5087744;27;45279;-70
2022/11/14 10:43:23;;;;;;;24.95;9.48;;;14.10;63.10;;;;;;5084259;27;45276;-70
2022/11/14 10:45:53;;;;;;;22.58;9.05;;;14.20;62.70;;;;;;5087462;27;45455;-70
2022/11/14 10:48:28;;;;;;;17.02;7.40;;;14.20;62.80;;;;;;5086982;27;45406;-73
2022/11/14 10:50:57;;;;;;;16.55;7.35;;;14.20;62.80;;;;;;5085383;27;45399;-72
2022/11/14 10:53:27;;;;;;;17.00;7.32;;;14.30;63.10;;;;;;5086988;28;45410;-71
2022/11/14 10:55:54;;;;;;;16.75;7.82;;;14.30;62.50;;;;;;5086261;27;45428;-73
2022/11/14 10:58:21;;;;;;;16.33;6.93;;;14.40;62.70;;;;;;5087737;27;45241;-71
2022/11/14 11:00:47;;;;;;;14.45;7.00;;;14.50;63.20;;;;;;5087592;27;45242;-73
2022/11/14 11:03:14;;;;;;;10.15;5.78;;;14.50;61.90;;;;;;5089873;27;45341;-74
2022/11/14 11:05:50;;;;;;;11.13;5.32;;;14.50;62.00;;;;;;5088334;27;46708;-72
2022/11/14 11:13:52;;;;;;;10.68;4.97;;;14.60;61.60;;;;;;5087340;28;45287;-71
2022/11/14 11:16:24;;;;;;;8.25;5.35;;;14.60;61.40;;;;;;5087681;27;45268;-71
2022/11/14 11:18:51;;;;;;;7.57;4.78;;;14.70;61.50;;;;;;5087597;27;45382;-72
2022/11/14 11:21:20;;;;;;;7.65;5.10;;;14.70;61.50;;;;;;5087624;27;45208;-70
2022/11/14 11:23:51;;;;;;;6.65;5.28;;;14.70;61.30;;;;;;5086329;27;45262;-72
2022/11/14 11:26:20;;;;;;;158.63;125.43;;;14.70;61.50;;;;;;5083385;27;46408;-71
2022/11/14 11:29:02;;;;;;;125.07;96.63;;;14.70;61.60;;;;;;5079636;27;45444;-71
2022/11/14 11:31:29;;;;;;;114.07;89.88;;;14.70;61.80;;;;;;5087206;27;45365;-70
2022/11/14 11:33:56;;;;;;;84.43;69.65;;;14.70;61.70;;;;;;5087468;27;45188;-71
2022/11/14 11:36:24;;;;;;;71.63;55.15;;;14.70;62.10;;;;;;5086981;27;46652;-72
2022/11/14 11:38:51;;;;;;;59.28;48.00;;;14.70;61.80;;;;;;5086969;27;45303;-69
2022/11/14 11:41:21;;;;;;;66.15;48.28;;;14.70;61.80;;;;;;5085919;27;45420;-73
2022/11/14 11:43:49;;;;;;;62.97;50.92;;;14.70;62.10;;;;;;5087842;27;45298;-74
2022/11/14 11:46:18;;;;;;;48.33;40.53;;;14.70;62.30;;;;;;5088350;27;46328;-75
2022/11/14 11:48:45;;;;;;;40.15;33.55;;;14.90;62.70;;;;;;5087729;27;45365;-71
2022/11/14 11:51:14;;;;;;;35.47;29.42;;;15.00;62.50;;;;;;5087014;27;45251;-71
2022/11/14 11:53:44;;;;;;;29.77;26.60;;;15.00;61.40;;;;;;5087274;27;45228;-71
2022/11/14 11:56:13;;;;;;;48.15;42.90;;;15.00;61.30;;;;;;5085561;27;48846;-70
2022/11/14 11:58:43;;;;;;;95.70;85.18;;;15.00;61.30;;;;;;5086694;27;45474;-70
2022/11/14 12:01:11;;;;;;;97.28;83.07;;;15.10;61.50;;;;;;5085489;27;45277;-70
2022/11/14 12:03:38;;;;;;;97.47;87.00;;;15.00;61.10;;;;;;5083667;27;45450;-71
2022/11/14 12:06:11;;;;;;;74.78;64.80;;;15.10;60.80;;;;;;5078761;28;47121;-71
2022/11/14 12:08:40;;;;;;;63.63;53.58;;;15.10;61.00;;;;;;5090349;27;45224;-73
2022/11/14 12:11:11;;;;;;;46.92;42.05;;;15.10;62.00;;;;;;5090397;27;45212;-71
2022/11/14 12:14:00;;;;;;;41.03;34.95;;;15.20;61.10;;;;;;5090868;27;45406;-71
2022/11/14 12:16:47;;;;;;;40.85;34.53;;;15.20;60.90;;;;;;5090514;27;47134;-71
2022/11/14 12:19:38;;;;;;;69.55;54.55;;;15.20;60.80;;;;;;5090619;27;45251;-73
2022/11/14 12:22:17;;;;;;;148.02;110.60;;;15.30;61.10;;;;;;5070090;28;45401;-72
2022/11/14 12:25:05;;;;;;;185.50;132.18;;;15.30;60.90;;;;;;5068780;28;45440;-73
2022/11/14 12:27:42;;;;;;;138.57;107.97;;;15.30;61.60;;;;;;5088158;28;45525;-72
2022/11/14 12:30:12;;;;;;;126.10;105.25;;;15.40;61.90;;;;;;5088946;27;45293;-70
2022/11/14 12:32:41;;;;;;;165.45;138.35;;;15.50;61.40;;;;;;5088489;27;45304;-71
2022/11/14 12:35:11;;;;;;;156.25;134.77;;;15.50;60.90;;;;;;5089601;27;45321;-71
2022/11/14 12:37:42;;;;;;;126.85;111.55;;;15.50;61.10;;;;;;5089330;27;45215;-72
2022/11/14 12:40:24;;;;;;;125.47;111.47;;;15.60;61.10;;;;;;5093856;27;45441;-71
2022/11/14 12:42:52;;;;;;;110.97;94.63;;;15.70;60.60;;;;;;5078033;28;45259;-72
2022/11/14 12:45:56;;;;;;;89.75;79.72;;;15.70;60.10;;;;;;5089825;27;45359;-70
2022/11/14 12:48:23;;;;;;;73.80;61.30;;;15.80;60.00;;;;;;5068800;28;45279;-70
2022/11/14 12:50:50;;;;;;;58.00;50.03;;;15.70;59.70;;;;;;5067985;28;45478;-70
2022/11/14 12:53:40;;;;;;;54.72;47.08;;;15.70;59.30;;;;;;5080536;28;45362;-71